sensor_id;sensor_type;location;lat;lon;timestamp;P1;durP1;ratioP1;P2;durP2;ratioP2
6420;SDS011;3243;50.958;7.012;2024-02-28T00:01:02;48.93;;;26.30;;
6420;SDS011;3243;50.958;7.012;2024-02-28T00:03:29;57.70;;;29.13;;
6420;SDS011;3243;50.958;7.012;2024-02-28T00:05:58;54.80;;;28.07;;
6420;SDS011;3243;50.958;7.012;2024-02-28T00:08:25;50.23;;;27.47;;
6420;SDS011;3243;50.958;7.012;2024-02-28T00:10:53;57.50;;;27.13;;
6420;SDS011;3243;50.958;7.012;2024-02-28T00:13:20;55.63;;;29.30;;
6420;SDS011;3243;50.958;7.012;2024-02-28T00:15:48;53.03;;;27.57;;
6420;SDS011;3243;50.958;7.012;2024-02-28T00:18:16;59.40;;;28.07;;
6420;SDS011;3243;50.958;7.012;2024-02-28T00:20:46;52.33;;;27.40;;
6420;SDS011;3243;50.958;7.012;2024-02-28T00:23:13;52.80;;;27.50;;
6420;SDS011;3243;50.958;7.012;2024-02-28T00:25:39;53.67;;;27.53;;
6420;SDS011;3243;50.958;7.012;2024-02-28T00:28:07;57.73;;;28.17;;
6420;SDS011;3243;50.958;7.012;2024-02-28T00:30:33;50.97;;;27.43;;
6420;SDS011;3243;50.958;7.012;2024-02-28T00:33:00;56.03;;;26.83;;
6420;SDS011;3243;50.958;7.012;2024-02-28T00:35:28;50.17;;;27.73;;
6420;SDS011;3243;50.958;7.012;2024-02-28T00:37:59;51.47;;;27.13;;
6420;SDS011;3243;50.958;7.012;2024-02-28T00:40:26;57.33;;;28.93;;
6420;SDS011;3243;50.958;7.012;2024-02-28T00:42:54;47.37;;;25.63;;
6420;SDS011;3243;50.958;7.012;2024-02-28T00:45:22;48.30;;;26.60;;
6420;SDS011;3243;50.958;7.012;2024-02-28T00:47:49;55.40;;;28.23;;
6420;SDS011;3243;50.958;7.012;2024-02-28T00:50:16;47.90;;;25.87;;
6420;SDS011;3243;50.958;7.012;2024-02-28T00:52:43;55.70;;;27.30;;
6420;SDS011;3243;50.958;7.012;2024-02-28T00:55:10;56.73;;;27.43;;
6420;SDS011;3243;50.958;7.012;2024-02-28T00:57:37;57.57;;;28.67;;
6420;SDS011;3243;50.958;7.012;2024-02-28T01:00:04;56.37;;;29.13;;
6420;SDS011;3243;50.958;7.012;2024-02-28T01:02:32;49.80;;;25.97;;
6420;SDS011;3243;50.958;7.012;2024-02-28T01:04:59;49.17;;;27.10;;
6420;SDS011;3243;50.958;7.012;2024-02-28T01:07:25;50.80;;;27.00;;
6420;SDS011;3243;50.958;7.012;2024-02-28T01:09:53;51.50;;;25.67;;
6420;SDS011;3243;50.958;7.012;2024-02-28T01:12:20;48.63;;;25.73;;
6420;SDS011;3243;50.958;7.012;2024-02-28T01:14:47;49.17;;;26.60;;
6420;SDS011;3243;50.958;7.012;2024-02-28T01:17:14;47.47;;;26.13;;
6420;SDS011;3243;50.958;7.012;2024-02-28T01:19:41;48.43;;;25.77;;
6420;SDS011;3243;50.958;7.012;2024-02-28T01:22:07;50.53;;;26.67;;
6420;SDS011;3243;50.958;7.012;2024-02-28T01:24:35;51.20;;;26.67;;
6420;SDS011;3243;50.958;7.012;2024-02-28T01:27:03;51.17;;;26.30;;
6420;SDS011;3243;50.958;7.012;2024-02-28T01:29:29;49.97;;;26.93;;
6420;SDS011;3243;50.958;7.012;2024-02-28T01:31:57;50.33;;;26.60;;
6420;SDS011;3243;50.958;7.012;2024-02-28T01:34:24;50.73;;;27.97;;
6420;SDS011;3243;50.958;7.012;2024-02-28T01:36:51;52.67;;;27.63;;
6420;SDS011;3243;50.958;7.012;2024-02-28T01:39:18;43.27;;;24.50;;
6420;SDS011;3243;50.958;7.012;2024-02-28T01:41:54;51.37;;;26.17;;
6420;SDS011;3243;50.958;7.012;2024-02-28T01:44:21;45.87;;;24.53;;
6420;SDS011;3243;50.958;7.012;2024-02-28T01:46:49;48.93;;;25.80;;
6420;SDS011;3243;50.958;7.012;2024-02-28T01:49:16;58.43;;;28.07;;
6420;SDS011;3243;50.958;7.012;2024-02-28T01:51:44;51.80;;;28.30;;
6420;SDS011;3243;50.958;7.012;2024-02-28T01:54:12;53.83;;;27.83;;
6420;SDS011;3243;50.958;7.012;2024-02-28T01:56:40;53.17;;;27.70;;
6420;SDS011;3243;50.958;7.012;2024-02-28T01:59:07;54.07;;;28.53;;
6420;SDS011;3243;50.958;7.012;2024-02-28T02:01:36;52.93;;;28.27;;
6420;SDS011;3243;50.958;7.012;2024-02-28T02:04:03;58.03;;;30.03;;
6420;SDS011;3243;50.958;7.012;2024-02-28T02:06:31;60.53;;;32.73;;
6420;SDS011;3243;50.958;7.012;2024-02-28T02:08:59;57.27;;;30.83;;
6420;SDS011;3243;50.958;7.012;2024-02-28T02:11:27;63.20;;;32.77;;
6420;SDS011;3243;50.958;7.012;2024-02-28T02:13:55;65.83;;;32.93;;
6420;SDS011;3243;50.958;7.012;2024-02-28T02:16:22;65.33;;;33.97;;
6420;SDS011;3243;50.958;7.012;2024-02-28T02:18:52;63.87;;;34.03;;
6420;SDS011;3243;50.958;7.012;2024-02-28T02:21:20;73.37;;;37.50;;
6420;SDS011;3243;50.958;7.012;2024-02-28T02:23:50;67.30;;;35.63;;
6420;SDS011;3243;50.958;7.012;2024-02-28T02:26:17;72.20;;;35.47;;
6420;SDS011;3243;50.958;7.012;2024-02-28T02:28:44;64.23;;;34.17;;
6420;SDS011;3243;50.958;7.012;2024-02-28T02:31:12;68.33;;;35.57;;
6420;SDS011;3243;50.958;7.012;2024-02-28T02:33:39;68.07;;;35.87;;
6420;SDS011;3243;50.958;7.012;2024-02-28T02:36:06;69.40;;;34.63;;
6420;SDS011;3243;50.958;7.012;2024-02-28T02:38:33;67.23;;;33.77;;
6420;SDS011;3243;50.958;7.012;2024-02-28T02:41:00;73.33;;;36.90;;
6420;SDS011;3243;50.958;7.012;2024-02-28T02:43:27;79.57;;;39.83;;
6420;SDS011;3243;50.958;7.012;2024-02-28T02:45:55;78.83;;;41.57;;
6420;SDS011;3243;50.958;7.012;2024-02-28T02:48:22;75.70;;;37.53;;
6420;SDS011;3243;50.958;7.012;2024-02-28T02:50:48;78.67;;;39.23;;
6420;SDS011;3243;50.958;7.012;2024-02-28T02:53:15;72.13;;;35.90;;
6420;SDS011;3243;50.958;7.012;2024-02-28T02:55:42;66.27;;;34.00;;
6420;SDS011;3243;50.958;7.012;2024-02-28T02:58:09;63.77;;;34.23;;
6420;SDS011;3243;50.958;7.012;2024-02-28T03:00:36;77.47;;;36.67;;
6420;SDS011;3243;50.958;7.012;2024-02-28T03:03:04;73.67;;;36.47;;
6420;SDS011;3243;50.958;7.012;2024-02-28T03:05:32;70.53;;;34.20;;
6420;SDS011;3243;50.958;7.012;2024-02-28T03:07:59;71.30;;;34.67;;
6420;SDS011;3243;50.958;7.012;2024-02-28T03:10:26;72.33;;;36.50;;
6420;SDS011;3243;50.958;7.012;2024-02-28T03:12:53;72.37;;;36.13;;
6420;SDS011;3243;50.958;7.012;2024-02-28T03:15:20;65.60;;;34.23;;
6420;SDS011;3243;50.958;7.012;2024-02-28T03:17:47;66.33;;;36.00;;
6420;SDS011;3243;50.958;7.012;2024-02-28T03:20:14;78.23;;;38.67;;
6420;SDS011;3243;50.958;7.012;2024-02-28T03:22:41;82.53;;;40.97;;
6420;SDS011;3243;50.958;7.012;2024-02-28T03:25:09;74.97;;;38.67;;
6420;SDS011;3243;50.958;7.012;2024-02-28T03:27:36;77.17;;;37.53;;
6420;SDS011;3243;50.958;7.012;2024-02-28T03:30:03;77.87;;;40.07;;
6420;SDS011;3243;50.958;7.012;2024-02-28T03:32:31;73.07;;;37.20;;
6420;SDS011;3243;50.958;7.012;2024-02-28T03:34:58;76.50;;;37.93;;
6420;SDS011;3243;50.958;7.012;2024-02-28T03:37:24;80.27;;;40.10;;
6420;SDS011;3243;50.958;7.012;2024-02-28T03:39:52;71.70;;;37.80;;
6420;SDS011;3243;50.958;7.012;2024-02-28T03:42:19;75.10;;;38.23;;
6420;SDS011;3243;50.958;7.012;2024-02-28T03:44:47;78.30;;;39.40;;
6420;SDS011;3243;50.958;7.012;2024-02-28T03:47:14;75.53;;;39.50;;
6420;SDS011;3243;50.958;7.012;2024-02-28T03:49:41;78.60;;;39.07;;
6420;SDS011;3243;50.958;7.012;2024-02-28T03:52:08;76.70;;;39.03;;
6420;SDS011;3243;50.958;7.012;2024-02-28T03:54:35;72.00;;;37.57;;
6420;SDS011;3243;50.958;7.012;2024-02-28T03:57:02;77.33;;;40.17;;
6420;SDS011;3243;50.958;7.012;2024-02-28T03:59:29;75.37;;;37.03;;
6420;SDS011;3243;50.958;7.012;2024-02-28T04:01:56;73.77;;;38.17;;
6420;SDS011;3243;50.958;7.012;2024-02-28T04:04:23;72.47;;;38.20;;
6420;SDS011;3243;50.958;7.012;2024-02-28T04:06:51;70.40;;;36.63;;
6420;SDS011;3243;50.958;7.012;2024-02-28T04:09:18;73.77;;;37.40;;
6420;SDS011;3243;50.958;7.012;2024-02-28T04:11:46;81.87;;;38.17;;
6420;SDS011;3243;50.958;7.012;2024-02-28T04:14:13;71.67;;;37.03;;
6420;SDS011;3243;50.958;7.012;2024-02-28T04:16:41;74.30;;;37.93;;
6420;SDS011;3243;50.958;7.012;2024-02-28T04:19:10;73.23;;;37.87;;
6420;SDS011;3243;50.958;7.012;2024-02-28T04:21:37;73.00;;;37.73;;
6420;SDS011;3243;50.958;7.012;2024-02-28T04:24:06;74.03;;;38.37;;
6420;SDS011;3243;50.958;7.012;2024-02-28T04:26:32;76.47;;;38.00;;
6420;SDS011;3243;50.958;7.012;2024-02-28T04:29:00;74.20;;;38.13;;
6420;SDS011;3243;50.958;7.012;2024-02-28T04:31:29;78.13;;;39.37;;
6420;SDS011;3243;50.958;7.012;2024-02-28T04:33:56;75.43;;;38.03;;
6420;SDS011;3243;50.958;7.012;2024-02-28T04:36:23;82.73;;;39.27;;
6420;SDS011;3243;50.958;7.012;2024-02-28T04:38:50;81.93;;;40.80;;
6420;SDS011;3243;50.958;7.012;2024-02-28T04:41:17;79.53;;;38.97;;
6420;SDS011;3243;50.958;7.012;2024-02-28T04:43:44;78.40;;;38.97;;
6420;SDS011;3243;50.958;7.012;2024-02-28T04:46:11;75.50;;;39.17;;
6420;SDS011;3243;50.958;7.012;2024-02-28T04:48:38;79.30;;;38.70;;
6420;SDS011;3243;50.958;7.012;2024-02-28T04:51:06;77.27;;;38.87;;
6420;SDS011;3243;50.958;7.012;2024-02-28T04:53:32;76.23;;;38.57;;
6420;SDS011;3243;50.958;7.012;2024-02-28T04:56:00;76.80;;;37.67;;
6420;SDS011;3243;50.958;7.012;2024-02-28T04:58:26;84.07;;;39.77;;
6420;SDS011;3243;50.958;7.012;2024-02-28T05:00:53;84.43;;;39.73;;
6420;SDS011;3243;50.958;7.012;2024-02-28T05:03:20;80.37;;;39.63;;
6420;SDS011;3243;50.958;7.012;2024-02-28T05:05:48;85.33;;;40.23;;
6420;SDS011;3243;50.958;7.012;2024-02-28T05:08:17;77.73;;;38.13;;
6420;SDS011;3243;50.958;7.012;2024-02-28T05:10:45;76.60;;;37.87;;
6420;SDS011;3243;50.958;7.012;2024-02-28T05:13:12;77.63;;;38.43;;
6420;SDS011;3243;50.958;7.012;2024-02-28T05:15:39;80.00;;;39.03;;
6420;SDS011;3243;50.958;7.012;2024-02-28T05:18:06;77.47;;;38.70;;
6420;SDS011;3243;50.958;7.012;2024-02-28T05:20:33;74.83;;;37.53;;
6420;SDS011;3243;50.958;7.012;2024-02-28T05:23:01;84.17;;;40.13;;
6420;SDS011;3243;50.958;7.012;2024-02-28T05:25:27;74.73;;;38.17;;
6420;SDS011;3243;50.958;7.012;2024-02-28T05:27:55;77.50;;;37.07;;
6420;SDS011;3243;50.958;7.012;2024-02-28T05:30:22;83.93;;;39.80;;
6420;SDS011;3243;50.958;7.012;2024-02-28T05:32:49;80.13;;;40.17;;
6420;SDS011;3243;50.958;7.012;2024-02-28T05:35:16;74.57;;;37.27;;
6420;SDS011;3243;50.958;7.012;2024-02-28T05:37:44;83.13;;;39.33;;
6420;SDS011;3243;50.958;7.012;2024-02-28T05:40:11;79.57;;;36.40;;
6420;SDS011;3243;50.958;7.012;2024-02-28T05:42:39;86.33;;;40.87;;
6420;SDS011;3243;50.958;7.012;2024-02-28T05:45:06;74.67;;;36.50;;
6420;SDS011;3243;50.958;7.012;2024-02-28T05:47:33;80.63;;;38.03;;
6420;SDS011;3243;50.958;7.012;2024-02-28T05:50:00;78.47;;;36.93;;
6420;SDS011;3243;50.958;7.012;2024-02-28T05:52:27;79.83;;;37.37;;
6420;SDS011;3243;50.958;7.012;2024-02-28T05:54:54;80.87;;;39.10;;
6420;SDS011;3243;50.958;7.012;2024-02-28T05:57:21;85.67;;;39.00;;
6420;SDS011;3243;50.958;7.012;2024-02-28T05:59:50;77.07;;;36.20;;
6420;SDS011;3243;50.958;7.012;2024-02-28T06:02:16;72.60;;;36.07;;
6420;SDS011;3243;50.958;7.012;2024-02-28T06:04:43;73.77;;;36.73;;
6420;SDS011;3243;50.958;7.012;2024-02-28T06:07:10;79.83;;;37.60;;
6420;SDS011;3243;50.958;7.012;2024-02-28T06:09:37;73.80;;;35.73;;
6420;SDS011;3243;50.958;7.012;2024-02-28T06:12:05;81.17;;;37.70;;
6420;SDS011;3243;50.958;7.012;2024-02-28T06:14:32;82.60;;;38.30;;
6420;SDS011;3243;50.958;7.012;2024-02-28T06:16:59;79.33;;;35.40;;
6420;SDS011;3243;50.958;7.012;2024-02-28T06:19:26;78.97;;;37.73;;
6420;SDS011;3243;50.958;7.012;2024-02-28T06:21:54;79.83;;;37.30;;
6420;SDS011;3243;50.958;7.012;2024-02-28T06:24:21;76.70;;;37.63;;
6420;SDS011;3243;50.958;7.012;2024-02-28T06:26:48;77.27;;;37.77;;
6420;SDS011;3243;50.958;7.012;2024-02-28T06:29:15;83.80;;;38.17;;
6420;SDS011;3243;50.958;7.012;2024-02-28T06:31:43;78.00;;;37.07;;
6420;SDS011;3243;50.958;7.012;2024-02-28T06:34:09;78.20;;;36.23;;
6420;SDS011;3243;50.958;7.012;2024-02-28T06:36:39;84.70;;;39.37;;
6420;SDS011;3243;50.958;7.012;2024-02-28T06:39:06;77.40;;;36.30;;
6420;SDS011;3243;50.958;7.012;2024-02-28T06:41:33;82.23;;;37.23;;
6420;SDS011;3243;50.958;7.012;2024-02-28T06:44:00;77.10;;;36.73;;
6420;SDS011;3243;50.958;7.012;2024-02-28T06:46:27;81.33;;;37.33;;
6420;SDS011;3243;50.958;7.012;2024-02-28T06:48:54;76.10;;;36.50;;
6420;SDS011;3243;50.958;7.012;2024-02-28T06:51:21;66.77;;;33.93;;
6420;SDS011;3243;50.958;7.012;2024-02-28T06:53:48;74.73;;;36.37;;
6420;SDS011;3243;50.958;7.012;2024-02-28T06:56:15;74.40;;;36.73;;
6420;SDS011;3243;50.958;7.012;2024-02-28T06:58:42;76.03;;;36.37;;
6420;SDS011;3243;50.958;7.012;2024-02-28T07:01:09;74.03;;;35.40;;
6420;SDS011;3243;50.958;7.012;2024-02-28T07:03:36;77.93;;;36.93;;
6420;SDS011;3243;50.958;7.012;2024-02-28T07:06:03;75.10;;;37.47;;
6420;SDS011;3243;50.958;7.012;2024-02-28T07:08:31;76.77;;;36.40;;
6420;SDS011;3243;50.958;7.012;2024-02-28T07:10:58;76.77;;;36.07;;
6420;SDS011;3243;50.958;7.012;2024-02-28T07:13:25;76.63;;;36.93;;
6420;SDS011;3243;50.958;7.012;2024-02-28T07:15:53;81.90;;;39.90;;
6420;SDS011;3243;50.958;7.012;2024-02-28T07:18:23;86.03;;;38.43;;
6420;SDS011;3243;50.958;7.012;2024-02-28T07:20:56;90.07;;;39.13;;
6420;SDS011;3243;50.958;7.012;2024-02-28T07:23:22;78.23;;;38.57;;
6420;SDS011;3243;50.958;7.012;2024-02-28T07:25:49;82.30;;;36.80;;
6420;SDS011;3243;50.958;7.012;2024-02-28T07:28:16;80.93;;;38.23;;
6420;SDS011;3243;50.958;7.012;2024-02-28T07:30:43;79.13;;;37.77;;
6420;SDS011;3243;50.958;7.012;2024-02-28T07:33:12;77.77;;;37.53;;
6420;SDS011;3243;50.958;7.012;2024-02-28T07:35:45;86.13;;;39.53;;
6420;SDS011;3243;50.958;7.012;2024-02-28T07:38:13;84.63;;;39.20;;
6420;SDS011;3243;50.958;7.012;2024-02-28T07:40:40;81.90;;;37.67;;
6420;SDS011;3243;50.958;7.012;2024-02-28T07:43:07;80.80;;;38.27;;
6420;SDS011;3243;50.958;7.012;2024-02-28T07:45:34;80.67;;;37.37;;
6420;SDS011;3243;50.958;7.012;2024-02-28T07:48:01;75.70;;;37.13;;
6420;SDS011;3243;50.958;7.012;2024-02-28T07:50:28;77.30;;;37.73;;
6420;SDS011;3243;50.958;7.012;2024-02-28T07:52:55;81.23;;;37.60;;
6420;SDS011;3243;50.958;7.012;2024-02-28T07:55:22;79.80;;;38.50;;
6420;SDS011;3243;50.958;7.012;2024-02-28T07:57:53;74.27;;;35.77;;
6420;SDS011;3243;50.958;7.012;2024-02-28T08:00:20;74.43;;;36.23;;
6420;SDS011;3243;50.958;7.012;2024-02-28T08:02:48;80.33;;;37.17;;
6420;SDS011;3243;50.958;7.012;2024-02-28T08:05:15;76.03;;;35.57;;
6420;SDS011;3243;50.958;7.012;2024-02-28T08:07:42;75.30;;;35.77;;
6420;SDS011;3243;50.958;7.012;2024-02-28T08:10:09;73.97;;;37.40;;
6420;SDS011;3243;50.958;7.012;2024-02-28T08:12:36;77.03;;;37.27;;
6420;SDS011;3243;50.958;7.012;2024-02-28T08:15:04;67.60;;;34.90;;
6420;SDS011;3243;50.958;7.012;2024-02-28T08:17:31;68.90;;;35.43;;
6420;SDS011;3243;50.958;7.012;2024-02-28T08:19:58;74.27;;;36.33;;
6420;SDS011;3243;50.958;7.012;2024-02-28T08:22:25;72.03;;;37.87;;
6420;SDS011;3243;50.958;7.012;2024-02-28T08:24:52;71.40;;;35.83;;
6420;SDS011;3243;50.958;7.012;2024-02-28T08:27:20;74.80;;;38.00;;
6420;SDS011;3243;50.958;7.012;2024-02-28T08:29:49;69.63;;;35.20;;
6420;SDS011;3243;50.958;7.012;2024-02-28T08:32:17;66.80;;;34.83;;
6420;SDS011;3243;50.958;7.012;2024-02-28T08:34:45;64.50;;;33.93;;
6420;SDS011;3243;50.958;7.012;2024-02-28T08:37:15;66.13;;;35.37;;
6420;SDS011;3243;50.958;7.012;2024-02-28T08:39:43;64.37;;;34.57;;
6420;SDS011;3243;50.958;7.012;2024-02-28T08:42:10;68.93;;;35.10;;
6420;SDS011;3243;50.958;7.012;2024-02-28T08:44:38;63.47;;;34.03;;
6420;SDS011;3243;50.958;7.012;2024-02-28T08:47:06;63.50;;;33.80;;
6420;SDS011;3243;50.958;7.012;2024-02-28T08:49:35;63.57;;;33.10;;
6420;SDS011;3243;50.958;7.012;2024-02-28T08:52:02;60.10;;;33.47;;
6420;SDS011;3243;50.958;7.012;2024-02-28T08:54:29;59.07;;;32.50;;
6420;SDS011;3243;50.958;7.012;2024-02-28T08:56:56;63.33;;;32.57;;
6420;SDS011;3243;50.958;7.012;2024-02-28T08:59:29;61.37;;;31.07;;
6420;SDS011;3243;50.958;7.012;2024-02-28T09:01:56;62.07;;;32.20;;
6420;SDS011;3243;50.958;7.012;2024-02-28T09:04:22;60.73;;;34.57;;
6420;SDS011;3243;50.958;7.012;2024-02-28T09:06:50;59.90;;;31.87;;
6420;SDS011;3243;50.958;7.012;2024-02-28T09:09:16;59.73;;;32.43;;
6420;SDS011;3243;50.958;7.012;2024-02-28T09:11:44;59.43;;;30.53;;
6420;SDS011;3243;50.958;7.012;2024-02-28T09:14:11;59.57;;;31.77;;
6420;SDS011;3243;50.958;7.012;2024-02-28T09:16:38;58.03;;;32.17;;
6420;SDS011;3243;50.958;7.012;2024-02-28T09:19:05;54.90;;;30.53;;
6420;SDS011;3243;50.958;7.012;2024-02-28T09:21:32;57.67;;;33.57;;
6420;SDS011;3243;50.958;7.012;2024-02-28T09:23:59;62.13;;;31.87;;
6420;SDS011;3243;50.958;7.012;2024-02-28T09:26:27;58.27;;;33.27;;
6420;SDS011;3243;50.958;7.012;2024-02-28T09:28:54;58.97;;;32.73;;
6420;SDS011;3243;50.958;7.012;2024-02-28T09:31:21;61.33;;;32.80;;
6420;SDS011;3243;50.958;7.012;2024-02-28T09:33:48;61.70;;;32.83;;
6420;SDS011;3243;50.958;7.012;2024-02-28T09:36:15;57.73;;;32.20;;
6420;SDS011;3243;50.958;7.012;2024-02-28T09:38:42;61.97;;;31.73;;
6420;SDS011;3243;50.958;7.012;2024-02-28T09:41:14;53.43;;;30.30;;
6420;SDS011;3243;50.958;7.012;2024-02-28T09:43:41;56.07;;;31.43;;
6420;SDS011;3243;50.958;7.012;2024-02-28T09:46:08;52.27;;;31.13;;
6420;SDS011;3243;50.958;7.012;2024-02-28T09:48:41;54.33;;;29.40;;
6420;SDS011;3243;50.958;7.012;2024-02-28T09:51:08;52.70;;;29.63;;
6420;SDS011;3243;50.958;7.012;2024-02-28T09:53:39;55.00;;;31.37;;
6420;SDS011;3243;50.958;7.012;2024-02-28T09:56:06;53.13;;;31.37;;
6420;SDS011;3243;50.958;7.012;2024-02-28T09:58:33;53.20;;;29.83;;
6420;SDS011;3243;50.958;7.012;2024-02-28T10:01:01;53.40;;;30.87;;
6420;SDS011;3243;50.958;7.012;2024-02-28T10:03:30;56.37;;;31.20;;
6420;SDS011;3243;50.958;7.012;2024-02-28T10:05:58;55.17;;;32.20;;
6420;SDS011;3243;50.958;7.012;2024-02-28T10:08:29;49.53;;;30.57;;
6420;SDS011;3243;50.958;7.012;2024-02-28T10:10:58;49.73;;;29.70;;
6420;SDS011;3243;50.958;7.012;2024-02-28T10:13:25;46.63;;;28.70;;
6420;SDS011;3243;50.958;7.012;2024-02-28T10:15:52;53.73;;;30.03;;
6420;SDS011;3243;50.958;7.012;2024-02-28T10:18:20;55.50;;;30.23;;
6420;SDS011;3243;50.958;7.012;2024-02-28T10:20:47;57.77;;;31.80;;
6420;SDS011;3243;50.958;7.012;2024-02-28T10:23:14;50.03;;;29.97;;
6420;SDS011;3243;50.958;7.012;2024-02-28T10:25:43;53.20;;;29.33;;
6420;SDS011;3243;50.958;7.012;2024-02-28T10:28:22;53.00;;;30.17;;
6420;SDS011;3243;50.958;7.012;2024-02-28T10:30:49;51.43;;;29.17;;
6420;SDS011;3243;50.958;7.012;2024-02-28T10:33:17;51.40;;;30.40;;
6420;SDS011;3243;50.958;7.012;2024-02-28T10:35:44;51.50;;;28.60;;
6420;SDS011;3243;50.958;7.012;2024-02-28T10:38:11;54.80;;;30.30;;
6420;SDS011;3243;50.958;7.012;2024-02-28T10:40:40;48.90;;;28.50;;
6420;SDS011;3243;50.958;7.012;2024-02-28T10:43:10;53.57;;;30.13;;
6420;SDS011;3243;50.958;7.012;2024-02-28T10:45:37;53.13;;;28.63;;
6420;SDS011;3243;50.958;7.012;2024-02-28T10:48:25;53.83;;;29.10;;
6420;SDS011;3243;50.958;7.012;2024-02-28T10:50:53;49.30;;;28.40;;
6420;SDS011;3243;50.958;7.012;2024-02-28T10:53:29;50.93;;;29.40;;
6420;SDS011;3243;50.958;7.012;2024-02-28T10:56:02;52.83;;;30.00;;
6420;SDS011;3243;50.958;7.012;2024-02-28T10:58:33;56.30;;;30.37;;
6420;SDS011;3243;50.958;7.012;2024-02-28T11:01:04;52.17;;;30.63;;
6420;SDS011;3243;50.958;7.012;2024-02-28T11:03:32;49.90;;;28.90;;
6420;SDS011;3243;50.958;7.012;2024-02-28T11:05:59;47.97;;;27.73;;
6420;SDS011;3243;50.958;7.012;2024-02-28T11:08:29;53.17;;;30.37;;
6420;SDS011;3243;50.958;7.012;2024-02-28T11:10:58;54.07;;;30.17;;
6420;SDS011;3243;50.958;7.012;2024-02-28T11:13:28;51.83;;;29.67;;
6420;SDS011;3243;50.958;7.012;2024-02-28T11:16:06;52.50;;;29.03;;
6420;SDS011;3243;50.958;7.012;2024-02-28T11:18:35;52.00;;;29.03;;
6420;SDS011;3243;50.958;7.012;2024-02-28T11:21:02;51.80;;;29.77;;
6420;SDS011;3243;50.958;7.012;2024-02-28T11:23:37;48.10;;;26.73;;
6420;SDS011;3243;50.958;7.012;2024-02-28T11:26:03;48.17;;;28.07;;
6420;SDS011;3243;50.958;7.012;2024-02-28T11:28:31;49.63;;;27.47;;
6420;SDS011;3243;50.958;7.012;2024-02-28T11:30:57;46.17;;;27.53;;
6420;SDS011;3243;50.958;7.012;2024-02-28T11:33:24;48.07;;;27.50;;
6420;SDS011;3243;50.958;7.012;2024-02-28T11:35:57;48.17;;;28.83;;
6420;SDS011;3243;50.958;7.012;2024-02-28T11:38:27;46.07;;;26.37;;
6420;SDS011;3243;50.958;7.012;2024-02-28T11:40:54;46.03;;;26.37;;
6420;SDS011;3243;50.958;7.012;2024-02-28T11:43:21;51.07;;;30.07;;
6420;SDS011;3243;50.958;7.012;2024-02-28T11:45:51;50.87;;;27.97;;
6420;SDS011;3243;50.958;7.012;2024-02-28T11:48:18;49.20;;;27.00;;
6420;SDS011;3243;50.958;7.012;2024-02-28T11:50:45;48.77;;;26.93;;
6420;SDS011;3243;50.958;7.012;2024-02-28T11:53:11;43.80;;;25.90;;
6420;SDS011;3243;50.958;7.012;2024-02-28T11:55:39;43.80;;;26.93;;
6420;SDS011;3243;50.958;7.012;2024-02-28T11:58:08;45.20;;;25.93;;
6420;SDS011;3243;50.958;7.012;2024-02-28T12:00:51;39.40;;;23.83;;
6420;SDS011;3243;50.958;7.012;2024-02-28T12:03:24;38.13;;;23.67;;
6420;SDS011;3243;50.958;7.012;2024-02-28T12:05:52;44.70;;;26.00;;
6420;SDS011;3243;50.958;7.012;2024-02-28T12:08:21;42.40;;;24.87;;
6420;SDS011;3243;50.958;7.012;2024-02-28T12:10:49;37.80;;;23.70;;
6420;SDS011;3243;50.958;7.012;2024-02-28T12:13:19;38.13;;;23.57;;
6420;SDS011;3243;50.958;7.012;2024-02-28T12:15:46;34.93;;;22.50;;
6420;SDS011;3243;50.958;7.012;2024-02-28T12:18:15;38.90;;;22.70;;
6420;SDS011;3243;50.958;7.012;2024-02-28T12:20:42;39.60;;;24.33;;
6420;SDS011;3243;50.958;7.012;2024-02-28T12:23:09;35.33;;;22.57;;
6420;SDS011;3243;50.958;7.012;2024-02-28T12:25:36;39.50;;;23.90;;
6420;SDS011;3243;50.958;7.012;2024-02-28T12:28:04;37.10;;;22.50;;
6420;SDS011;3243;50.958;7.012;2024-02-28T12:30:39;36.53;;;21.77;;
6420;SDS011;3243;50.958;7.012;2024-02-28T12:33:09;32.90;;;19.40;;
6420;SDS011;3243;50.958;7.012;2024-02-28T12:35:38;33.73;;;20.57;;
6420;SDS011;3243;50.958;7.012;2024-02-28T12:38:05;33.33;;;21.13;;
6420;SDS011;3243;50.958;7.012;2024-02-28T12:40:32;34.60;;;21.40;;
6420;SDS011;3243;50.958;7.012;2024-02-28T12:42:58;34.57;;;21.57;;
6420;SDS011;3243;50.958;7.012;2024-02-28T12:45:25;36.93;;;21.90;;
6420;SDS011;3243;50.958;7.012;2024-02-28T12:47:53;31.13;;;19.33;;
6420;SDS011;3243;50.958;7.012;2024-02-28T12:50:23;31.07;;;19.87;;
6420;SDS011;3243;50.958;7.012;2024-02-28T12:52:50;35.67;;;19.87;;
6420;SDS011;3243;50.958;7.012;2024-02-28T12:55:20;32.00;;;19.33;;
6420;SDS011;3243;50.958;7.012;2024-02-28T12:57:47;29.23;;;19.47;;
6420;SDS011;3243;50.958;7.012;2024-02-28T13:00:15;31.77;;;19.07;;
6420;SDS011;3243;50.958;7.012;2024-02-28T13:02:42;26.33;;;16.80;;
6420;SDS011;3243;50.958;7.012;2024-02-28T13:05:09;30.40;;;18.87;;
6420;SDS011;3243;50.958;7.012;2024-02-28T13:07:37;29.40;;;19.07;;
6420;SDS011;3243;50.958;7.012;2024-02-28T13:10:04;30.53;;;19.13;;
6420;SDS011;3243;50.958;7.012;2024-02-28T13:12:31;27.87;;;17.67;;
6420;SDS011;3243;50.958;7.012;2024-02-28T13:14:58;26.50;;;16.63;;
6420;SDS011;3243;50.958;7.012;2024-02-28T13:17:25;27.30;;;17.10;;
6420;SDS011;3243;50.958;7.012;2024-02-28T13:19:52;29.23;;;16.90;;
6420;SDS011;3243;50.958;7.012;2024-02-28T13:22:19;25.20;;;16.63;;
6420;SDS011;3243;50.958;7.012;2024-02-28T13:24:46;26.40;;;16.40;;
6420;SDS011;3243;50.958;7.012;2024-02-28T13:27:13;25.87;;;16.00;;
6420;SDS011;3243;50.958;7.012;2024-02-28T13:29:40;28.17;;;16.97;;
6420;SDS011;3243;50.958;7.012;2024-02-28T13:32:07;27.60;;;17.50;;
6420;SDS011;3243;50.958;7.012;2024-02-28T13:34:35;28.70;;;15.90;;
6420;SDS011;3243;50.958;7.012;2024-02-28T13:37:02;24.57;;;16.00;;
6420;SDS011;3243;50.958;7.012;2024-02-28T13:39:29;27.27;;;16.00;;
6420;SDS011;3243;50.958;7.012;2024-02-28T13:41:56;25.73;;;16.60;;
6420;SDS011;3243;50.958;7.012;2024-02-28T13:44:23;25.77;;;16.33;;
6420;SDS011;3243;50.958;7.012;2024-02-28T13:46:50;25.10;;;15.53;;
6420;SDS011;3243;50.958;7.012;2024-02-28T13:49:18;24.50;;;14.10;;
6420;SDS011;3243;50.958;7.012;2024-02-28T13:51:46;24.07;;;14.93;;
6420;SDS011;3243;50.958;7.012;2024-02-28T13:54:15;20.43;;;13.27;;
6420;SDS011;3243;50.958;7.012;2024-02-28T13:56:42;24.00;;;15.07;;
6420;SDS011;3243;50.958;7.012;2024-02-28T13:59:10;22.37;;;15.00;;
6420;SDS011;3243;50.958;7.012;2024-02-28T14:01:37;25.37;;;14.57;;
6420;SDS011;3243;50.958;7.012;2024-02-28T14:04:04;27.73;;;16.20;;
6420;SDS011;3243;50.958;7.012;2024-02-28T14:06:31;24.50;;;13.57;;
6420;SDS011;3243;50.958;7.012;2024-02-28T14:08:58;21.63;;;13.63;;
6420;SDS011;3243;50.958;7.012;2024-02-28T14:11:25;21.73;;;13.40;;
6420;SDS011;3243;50.958;7.012;2024-02-28T14:13:52;20.90;;;12.90;;
6420;SDS011;3243;50.958;7.012;2024-02-28T14:16:19;21.67;;;12.90;;
6420;SDS011;3243;50.958;7.012;2024-02-28T14:18:46;20.20;;;12.60;;
6420;SDS011;3243;50.958;7.012;2024-02-28T14:21:13;21.40;;;12.63;;
6420;SDS011;3243;50.958;7.012;2024-02-28T14:23:40;20.37;;;13.10;;
6420;SDS011;3243;50.958;7.012;2024-02-28T14:26:07;21.83;;;12.23;;
6420;SDS011;3243;50.958;7.012;2024-02-28T14:28:35;20.07;;;12.47;;
6420;SDS011;3243;50.958;7.012;2024-02-28T14:31:02;17.50;;;12.03;;
6420;SDS011;3243;50.958;7.012;2024-02-28T14:33:30;21.77;;;13.37;;
6420;SDS011;3243;50.958;7.012;2024-02-28T14:35:57;19.40;;;12.07;;
6420;SDS011;3243;50.958;7.012;2024-02-28T14:38:25;19.93;;;11.53;;
6420;SDS011;3243;50.958;7.012;2024-02-28T14:40:52;18.50;;;11.57;;
6420;SDS011;3243;50.958;7.012;2024-02-28T14:43:19;17.13;;;11.50;;
6420;SDS011;3243;50.958;7.012;2024-02-28T14:45:46;18.93;;;11.53;;
6420;SDS011;3243;50.958;7.012;2024-02-28T14:48:13;16.40;;;10.43;;
6420;SDS011;3243;50.958;7.012;2024-02-28T14:50:41;18.40;;;10.87;;